sensor_id;sensor_type;location;lat;lon;timestamp;temperature;humidity
23403;DHT22;11874;48.228;11.684;2023-05-07T11:29:54;19.70;99.90
23403;DHT22;11874;48.228;11.684;2023-05-07T11:32:22;19.80;99.90
23403;DHT22;11874;48.228;11.684;2023-05-07T11:34:52;19.80;99.90
23403;DHT22;11874;48.228;11.684;2023-05-07T11:37:21;19.80;99.90
23403;DHT22;11874;48.228;11.684;2023-05-07T11:39:49;19.90;99.90
23403;DHT22;11874;48.228;11.684;2023-05-07T11:42:28;19.90;99.90
23403;DHT22;11874;48.228;11.684;2023-05-07T11:44:58;19.90;99.90
23403;DHT22;11874;48.228;11.684;2023-05-07T11:47:30;20.00;99.90
23403;DHT22;11874;48.228;11.684;2023-05-07T11:50:05;20.00;99.90
23403;DHT22;11874;48.228;11.684;2023-05-07T11:52:35;20.10;99.90
23403;DHT22;11874;48.228;11.684;2023-05-07T11:55:03;20.20;99.90
23403;DHT22;11874;48.228;11.684;2023-05-07T11:57:33;20.20;99.90
23403;DHT22;11874;48.228;11.684;2023-05-07T12:00:03;20.30;99.90
23403;DHT22;11874;48.228;11.684;2023-05-07T12:02:32;20.40;99.90
23403;DHT22;11874;48.228;11.684;2023-05-07T12:05:01;20.40;99.90
23403;DHT22;11874;48.228;11.684;2023-05-07T12:07:30;20.50;99.90
23403;DHT22;11874;48.228;11.684;2023-05-07T12:09:58;20.50;99.90
23403;DHT22;11874;48.228;11.684;2023-05-07T12:12:26;20.60;99.90
23403;DHT22;11874;48.228;11.684;2023-05-07T12:14:54;20.60;99.90
23403;DHT22;11874;48.228;11.684;2023-05-07T12:17:23;20.80;99.90
23403;DHT22;11874;48.228;11.684;2023-05-07T12:19:52;20.80;99.90
23403;DHT22;11874;48.228;11.684;2023-05-07T12:22:20;20.90;99.90
23403;DHT22;11874;48.228;11.684;2023-05-07T12:24:56;20.90;99.90
23403;DHT22;11874;48.228;11.684;2023-05-07T12:27:25;21.00;99.90
23403;DHT22;11874;48.228;11.684;2023-05-07T12:29:54;21.10;99.90
23403;DHT22;11874;48.228;11.684;2023-05-07T12:32:24;21.20;99.90
23403;DHT22;11874;48.228;11.684;2023-05-07T12:34:52;21.20;99.90
23403;DHT22;11874;48.228;11.684;2023-05-07T12:37:24;21.40;99.90
23403;DHT22;11874;48.228;11.684;2023-05-07T12:40:06;21.30;99.90
23403;DHT22;11874;48.228;11.684;2023-05-07T12:42:36;21.40;99.90
23403;DHT22;11874;48.228;11.684;2023-05-07T12:45:08;21.50;99.90
23403;DHT22;11874;48.228;11.684;2023-05-07T12:47:38;21.50;99.90
23403;DHT22;11874;48.228;11.684;2023-05-07T12:50:07;21.60;99.90
23403;DHT22;11874;48.228;11.684;2023-05-07T12:52:35;21.60;99.90
23403;DHT22;11874;48.228;11.684;2023-05-07T12:55:07;21.60;99.90
23403;DHT22;11874;48.228;11.684;2023-05-07T12:57:40;21.70;99.90
23403;DHT22;11874;48.228;11.684;2023-05-07T13:00:10;21.70;99.90
23403;DHT22;11874;48.228;11.684;2023-05-07T13:02:41;21.80;99.90
23403;DHT22;11874;48.228;11.684;2023-05-07T13:05:11;21.80;99.90
23403;DHT22;11874;48.228;11.684;2023-05-07T13:07:40;21.90;99.90
23403;DHT22;11874;48.228;11.684;2023-05-07T13:10:09;21.90;99.90
23403;DHT22;11874;48.228;11.684;2023-05-07T13:12:39;22.00;99.90
23403;DHT22;11874;48.228;11.684;2023-05-07T13:15:08;22.10;99.90
23403;DHT22;11874;48.228;11.684;2023-05-07T13:17:37;22.10;99.80
23403;DHT22;11874;48.228;11.684;2023-05-07T13:20:08;22.00;99.60
23403;DHT22;11874;48.228;11.684;2023-05-07T13:22:36;22.20;99.90
23403;DHT22;11874;48.228;11.684;2023-05-07T13:25:05;22.20;99.90
23403;DHT22;11874;48.228;11.684;2023-05-07T13:27:33;22.30;99.90
23403;DHT22;11874;48.228;11.684;2023-05-07T13:30:04;22.30;99.90
23403;DHT22;11874;48.228;11.684;2023-05-07T13:32:33;22.40;99.90
23403;DHT22;11874;48.228;11.684;2023-05-07T13:35:01;22.40;99.90
23403;DHT22;11874;48.228;11.684;2023-05-07T13:37:31;22.40;99.90
23403;DHT22;11874;48.228;11.684;2023-05-07T13:39:59;22.30;99.90
23403;DHT22;11874;48.228;11.684;2023-05-07T13:42:27;22.30;99.70
23403;DHT22;11874;48.228;11.684;2023-05-07T13:44:54;22.20;99.50
23403;DHT22;11874;48.228;11.684;2023-05-07T13:47:23;22.20;99.50
23403;DHT22;11874;48.228;11.684;2023-05-07T13:49:51;22.40;99.60
23403;DHT22;11874;48.228;11.684;2023-05-07T13:52:19;22.40;99.10
23403;DHT22;11874;48.228;11.684;2023-05-07T13:54:48;22.50;99.10
23403;DHT22;11874;48.228;11.684;2023-05-07T13:57:16;22.50;99.00
23403;DHT22;11874;48.228;11.684;2023-05-07T13:59:44;22.50;99.10
23403;DHT22;11874;48.228;11.684;2023-05-07T14:02:11;22.60;98.90
23403;DHT22;11874;48.228;11.684;2023-05-07T14:04:39;22.70;98.70
23403;DHT22;11874;48.228;11.684;2023-05-07T14:07:07;22.90;98.40
23403;DHT22;11874;48.228;11.684;2023-05-07T14:09:35;23.20;98.40
